Alva, OK

9:09 AM CDT on September 21, 2017 (GMT -0500)
Alva Regional

Weather History for KAVK - April, 2014

Change the Weather History Date:

Tuesday, April 1, 2014

  Actual Average Record
Temperature  
Mean Temperature 46 °F -  
Max Temperature 57 °F 67 °F 92 °F (1956)
Min Temperature 35 °F 39 °F 23 °F (1972)
Degree Days  
Heating Degree Days 19    
Moisture  
Dew Point 28 °F    
Average Humidity 52    
Maximum Humidity 76    
Minimum Humidity 37    
Precipitation  
Precipitation 0.00 in - - ()
Sea Level Pressure  
Sea Level Pressure 29.99 in    
Wind  
Wind Speed 12 mph (ENE)    
Max Wind Speed 20 mph    
Max Gust Speed 26 mph    
Visibility 10 miles    
Events      
Averages and records for this station are not official NWS values.
T = Trace of Precipitation, MM = Missing Value Source: NWS Daily Summary

Daily Weather History Graph

Daily Weather History Graph

Search for Another Location

Airport or City:

Trip Planner

Search our weather history database for the weather conditions in past years. The results will help you decide how hot, cold, wet, or windy it might be!

Date:

Astronomy

Apr. 01, 2014 Rise Set
Actual Time 7:20 AM CDT 7:57 PM CDT
Civil Twilight 6:54 AM CDT 8:23 PM CDT
Nautical Twilight 6:23 AM CDT 8:53 PM CDT
Astronomical Twilight 5:52 AM CDT 9:25 PM CDT
Moon 8:27 AM CDT (4/1) 10:17 PM CDT (4/1)
Length of Visible Light 13h 28m
Length of Day
12h 36m
Waxing Crescent, 5% of the Moon is Illuminated
Apr 1
Waxing Crescent
Apr 7
First Quarter
Apr 15
Full
Apr 22
Last Quarter
Apr 29
New

Hourly Weather History & Observations

Time (CDT) Temp. Windchill Dew Point Humidity Pressure Visibility Wind Dir Wind Speed Gust Speed Precip Events Conditions
12:10 AM 50.0 °F - 24.8 °F 37% 30.02 in 10.0 mi NNE 16.1 mph - N/A   Overcast
12:30 AM 48.2 °F - 24.8 °F 40% 30.04 in 10.0 mi NNE 19.6 mph 26.5 mph N/A   Overcast
12:50 AM 48.2 °F - 24.8 °F 40% 30.05 in 10.0 mi NNE 18.4 mph 24.2 mph N/A   Overcast
1:10 AM 46.4 °F 39.5 °F 24.8 °F 43% 30.06 in 10.0 mi NNE 17.3 mph 25.3 mph N/A   Overcast
1:30 AM 44.6 °F 38.8 °F 24.8 °F 46% 30.06 in 10.0 mi NNE 11.5 mph - N/A   Overcast
1:50 AM 44.6 °F 37.2 °F 24.8 °F 46% 30.07 in 10.0 mi NNE 17.3 mph 21.9 mph N/A   Overcast
2:10 AM 44.6 °F 38.8 °F 24.8 °F 46% 30.07 in 10.0 mi NE 11.5 mph - N/A   Overcast
2:30 AM 41.0 °F 33.1 °F 24.8 °F 53% 30.07 in 10.0 mi NNE 15.0 mph 19.6 mph N/A   Overcast
2:55 AM 41.0 °F 33.9 °F 24.8 °F 53% 30.07 in 10.0 mi NE 12.7 mph - N/A   Overcast
3:10 AM 39.2 °F 32.0 °F 24.8 °F 56% 30.07 in 10.0 mi NE 11.5 mph - N/A   Overcast
3:30 AM 39.2 °F 31.6 °F 24.8 °F 56% 30.07 in 10.0 mi NE 12.7 mph - N/A   Overcast
3:50 AM 39.2 °F 33.0 °F 24.8 °F 56% 30.08 in 10.0 mi NE 9.2 mph - N/A   Overcast
4:10 AM 37.4 °F 29.8 °F 24.8 °F 60% 30.07 in 10.0 mi NE 11.5 mph - N/A   Overcast
4:30 AM 39.2 °F 32.0 °F 24.8 °F 56% 30.07 in 10.0 mi NE 11.5 mph - N/A   Overcast
4:50 AM 37.4 °F 31.4 °F 24.8 °F 60% 30.07 in 10.0 mi NE 8.1 mph - N/A   Overcast
5:15 AM 37.4 °F 31.4 °F 24.8 °F 60% 30.08 in 10.0 mi NE 8.1 mph - N/A   Overcast
5:30 AM 37.4 °F 31.4 °F 24.8 °F 60% 30.08 in 10.0 mi NE 8.1 mph - N/A   Overcast
5:50 AM 35.6 °F 29.9 °F 24.8 °F 65% 30.08 in 10.0 mi NE 6.9 mph - N/A   Overcast
6:10 AM 35.6 °F 29.9 °F 24.8 °F 65% 30.09 in 10.0 mi NE 6.9 mph - N/A   Overcast
6:30 AM 35.6 °F 29.2 °F 24.8 °F 65% 30.09 in 10.0 mi NNE 8.1 mph - N/A   Overcast
6:50 AM 35.6 °F 29.9 °F 24.8 °F 65% 30.09 in 10.0 mi NNE 6.9 mph - N/A   Overcast
7:10 AM 35.6 °F 29.9 °F 24.8 °F 65% 30.09 in 10.0 mi NE 6.9 mph - N/A   Overcast
7:30 AM 35.6 °F 28.0 °F 24.8 °F 65% 30.09 in 10.0 mi NE 10.4 mph - N/A   Scattered Clouds
7:55 AM 35.6 °F 27.5 °F 24.8 °F 65% 30.10 in 10.0 mi NE 11.5 mph - N/A   Overcast
8:10 AM 35.6 °F 27.1 °F 23.0 °F 60% 30.10 in 10.0 mi NE 12.7 mph - N/A   Overcast
8:30 AM 37.4 °F 28.9 °F 23.0 °F 56% 30.10 in 10.0 mi NE 13.8 mph - N/A   Overcast
8:50 AM 37.4 °F 29.3 °F 23.0 °F 56% 30.10 in 10.0 mi ENE 12.7 mph - N/A   Overcast
9:10 AM 37.4 °F 29.8 °F 23.0 °F 56% 30.09 in 10.0 mi NE 11.5 mph - N/A   Overcast
9:30 AM 37.4 °F 28.9 °F 23.0 °F 56% 30.09 in 10.0 mi NE 13.8 mph - N/A   Overcast
9:50 AM 39.2 °F 32.0 °F 23.0 °F 52% 30.09 in 10.0 mi ENE 11.5 mph - N/A   Overcast
10:10 AM 41.0 °F 34.7 °F 24.8 °F 53% 30.09 in 10.0 mi NNE 10.4 mph 16.1 mph N/A   Overcast
10:30 AM 41.0 °F 33.9 °F 24.8 °F 53% 30.10 in 10.0 mi NE 12.7 mph - N/A   Overcast
10:50 AM 41.0 °F 35.2 °F 24.8 °F 53% 30.09 in 10.0 mi ENE 9.2 mph - N/A   Overcast
11:10 AM 41.0 °F 34.7 °F 24.8 °F 53% 30.09 in 10.0 mi ENE 10.4 mph - N/A   Overcast
11:30 AM 42.8 °F 36.6 °F 24.8 °F 49% 30.08 in 10.0 mi ENE 11.5 mph - N/A   Overcast
11:50 AM 44.6 °F 40.7 °F 24.8 °F 46% 30.07 in 10.0 mi East 6.9 mph - N/A   Overcast
12:10 PM 46.4 °F 41.5 °F 26.6 °F 46% 30.06 in 10.0 mi East 10.4 mph - N/A   Overcast
12:30 PM 46.4 °F 41.1 °F 26.6 °F 46% 30.05 in 10.0 mi NE 11.5 mph 16.1 mph N/A   Overcast
12:50 PM 48.2 °F - 26.6 °F 43% 30.04 in 10.0 mi ENE 11.5 mph - N/A   Overcast
1:10 PM 48.2 °F - 26.6 °F 43% 30.02 in 10.0 mi East 10.4 mph - N/A   Overcast
1:35 PM 48.2 °F - 26.6 °F 43% 30.01 in 10.0 mi East 13.8 mph 18.4 mph N/A   Overcast
1:50 PM 50.0 °F - 26.6 °F 40% 30.00 in 10.0 mi East 12.7 mph - N/A   Overcast
2:10 PM 50.0 °F - 26.6 °F 40% 29.99 in 10.0 mi ESE 12.7 mph - N/A   Overcast
2:30 PM 50.0 °F - 26.6 °F 40% 29.98 in 10.0 mi ESE 15.0 mph 18.4 mph N/A   Overcast
2:55 PM 51.8 °F - 28.4 °F 41% 29.96 in 10.0 mi ESE 11.5 mph 18.4 mph N/A   Overcast
3:10 PM 51.8 °F - 28.4 °F 41% 29.95 in 10.0 mi SE 10.4 mph - N/A   Overcast
3:30 PM 51.8 °F - 30.2 °F 44% 29.93 in 10.0 mi ESE 11.5 mph - N/A   Overcast
3:50 PM 53.6 °F - 30.2 °F 41% 29.92 in 10.0 mi ESE 9.2 mph - N/A   Partly Cloudy
4:10 PM 53.6 °F - 32.0 °F 44% 29.91 in 10.0 mi SE 15.0 mph - N/A   Clear
4:30 PM 53.6 °F - 32.0 °F 44% 29.90 in 10.0 mi SE 12.7 mph 18.4 mph N/A   Clear
4:50 PM 55.4 °F - 32.0 °F 41% 29.89 in 10.0 mi ESE 11.5 mph 17.3 mph N/A   Clear
5:10 PM 55.4 °F - 32.0 °F 41% 29.88 in 10.0 mi SE 11.5 mph 16.1 mph N/A   Clear
5:30 PM 55.4 °F - 32.0 °F 41% 29.87 in 10.0 mi SE 11.5 mph - N/A   Clear
5:50 PM 55.4 °F - 33.8 °F 44% 29.87 in 10.0 mi SE 12.7 mph 19.6 mph N/A   Clear
6:10 PM 57.2 °F - 35.6 °F 44% 29.87 in 10.0 mi SSE 8.1 mph 16.1 mph N/A   Clear
6:30 PM 57.2 °F - 35.6 °F 44% 29.86 in 10.0 mi ESE 8.1 mph - N/A   Clear
6:50 PM 57.2 °F - 35.6 °F 44% 29.87 in 10.0 mi SE 6.9 mph - N/A   Clear
7:10 PM 55.4 °F - 35.6 °F 47% 29.87 in 10.0 mi SE 6.9 mph - N/A   Clear
7:30 PM 55.4 °F - 37.4 °F 51% 29.87 in 10.0 mi East 6.9 mph - N/A   Clear
7:50 PM 53.6 °F - 35.6 °F 51% 29.87 in 10.0 mi ENE 5.8 mph - N/A   Clear
8:10 PM 51.8 °F - 35.6 °F 54% 29.87 in 10.0 mi ENE 8.1 mph - N/A   Clear
8:35 PM 50.0 °F - 33.8 °F 54% 29.86 in 10.0 mi ENE 9.2 mph - N/A   Clear
8:55 PM 50.0 °F - 33.8 °F 54% 29.86 in 10.0 mi ENE 9.2 mph - N/A   Clear
9:15 PM 50.0 °F - 35.6 °F 58% 29.85 in 10.0 mi ENE 11.5 mph - N/A   Clear
9:30 PM 50.0 °F - 35.6 °F 58% 29.84 in 10.0 mi ENE 10.4 mph - N/A   Partly Cloudy
9:55 PM 48.2 °F - 35.6 °F 62% 29.84 in 10.0 mi ENE 10.4 mph - N/A   Mostly Cloudy
10:10 PM 46.4 °F 41.9 °F 35.6 °F 66% 29.84 in 10.0 mi ENE 9.2 mph - N/A   Mostly Cloudy
10:30 PM 46.4 °F 41.5 °F 35.6 °F 66% 29.84 in 10.0 mi ENE 10.4 mph - N/A   Overcast
10:50 PM 46.4 °F 41.9 °F 35.6 °F 66% 29.85 in 10.0 mi ENE 9.2 mph - N/A   Overcast
11:10 PM 44.6 °F 39.7 °F 35.6 °F 71% 29.85 in 10.0 mi ENE 9.2 mph - N/A   Mostly Cloudy
11:30 PM 44.6 °F 39.7 °F 35.6 °F 71% 29.84 in 10.0 mi NE 9.2 mph - N/A   Mostly Cloudy
11:50 PM 42.8 °F 37.5 °F 35.6 °F 76% 29.84 in 10.0 mi ENE 9.2 mph - N/A   Mostly Cloudy